createdAt,value
2022-11-05T00:00:59.924Z,9.443779
2022-11-05T00:01:59.997Z,9.443784
2022-11-05T00:02:59.913Z,9.443812
2022-11-05T00:03:59.956Z,9.443741
2022-11-05T00:04:59.927Z,9.443749
2022-11-05T00:05:59.891Z,9.443635
2022-11-05T00:06:59.891Z,9.443616
2022-11-05T00:07:59.914Z,9.443595
2022-11-05T00:08:59.878Z,9.443639
2022-11-05T00:09:59.866Z,9.443636
2022-11-05T00:10:59.873Z,9.443694
2022-11-05T00:11:59.854Z,9.443610
2022-11-05T00:12:59.839Z,9.443604
2022-11-05T00:13:59.851Z,9.443400
2022-11-05T00:14:59.837Z,9.443559
2022-11-05T00:15:59.818Z,9.443610
2022-11-05T00:16:59.836Z,9.443388
2022-11-05T00:17:59.822Z,9.443612
2022-11-05T00:18:59.818Z,9.443801
2022-11-05T00:19:59.829Z,9.443815
2022-11-05T00:20:59.793Z,9.443830
2022-11-05T00:21:59.789Z,9.443987
2022-11-05T00:22:59.789Z,9.443660
2022-11-05T00:23:59.778Z,9.443613
2022-11-05T00:24:59.791Z,9.443574
2022-11-05T00:25:59.773Z,9.443547
2022-11-05T00:26:59.773Z,9.443793
2022-11-05T00:27:59.750Z,9.443768
2022-11-05T00:28:59.761Z,9.443769
2022-11-05T00:29:59.749Z,9.443819
2022-11-05T00:30:59.735Z,9.443863
2022-11-05T00:31:59.740Z,9.443876
2022-11-05T00:32:59.726Z,9.443781
2022-11-05T00:33:59.717Z,9.443702
2022-11-05T00:34:59.745Z,9.443832
2022-11-05T00:35:59.689Z,9.443794
2022-11-05T00:37:00.697Z,9.443793
2022-11-05T00:37:59.701Z,9.443828
2022-11-05T00:38:59.680Z,9.443808
2022-11-05T00:39:59.681Z,9.443749
2022-11-05T00:40:59.673Z,9.443801
2022-11-05T00:41:59.653Z,9.443730
2022-11-05T00:42:59.654Z,9.443788
2022-11-05T00:43:59.673Z,9.443866
2022-11-05T00:44:59.650Z,9.443844
2022-11-05T00:45:59.633Z,9.443792
2022-11-05T00:47:00.054Z,9.443788
2022-11-05T00:48:00.608Z,9.443775
2022-11-05T00:48:59.611Z,9.443768
2022-11-05T00:49:59.639Z,9.443773
2022-11-05T00:50:59.613Z,9.443709
2022-11-05T00:51:59.582Z,9.443628
2022-11-05T00:52:59.805Z,9.443674
2022-11-05T00:53:59.636Z,9.443630
2022-11-05T00:54:59.568Z,9.443657
2022-11-05T00:55:59.585Z,9.443680
2022-11-05T00:57:04.458Z,9.443598
2022-11-05T00:58:01.581Z,9.443663
2022-11-05T00:58:59.562Z,9.443717
2022-11-05T00:59:59.541Z,9.443592
2022-11-05T01:00:59.538Z,9.443683
2022-11-05T01:01:59.658Z,9.443714
2022-11-05T01:02:59.517Z,9.443718
2022-11-05T01:03:59.514Z,9.443668
2022-11-05T01:04:59.523Z,9.443697
2022-11-05T01:05:59.526Z,9.443714
2022-11-05T01:06:59.500Z,9.443726
2022-11-05T01:07:59.530Z,9.443690
2022-11-05T01:08:59.487Z,9.443694
2022-11-05T01:09:59.498Z,9.443695
2022-11-05T01:10:59.498Z,9.443707
2022-11-05T01:11:59.479Z,9.443719
2022-11-05T01:12:59.455Z,9.443711
2022-11-05T01:13:59.510Z,9.443736
2022-11-05T01:14:59.459Z,9.443743
2022-11-05T01:15:59.448Z,9.443727
2022-11-05T01:16:59.517Z,9.443766
2022-11-05T01:17:59.421Z,9.443772
2022-11-05T01:18:59.427Z,9.443768
2022-11-05T01:19:59.437Z,9.443773
2022-11-05T01:20:59.407Z,9.443782
2022-11-05T01:21:59.417Z,9.443767
2022-11-05T01:22:59.402Z,9.443809
2022-11-05T01:23:59.390Z,9.443790
2022-11-05T01:24:59.398Z,9.443797
2022-11-05T01:25:59.378Z,9.443769
2022-11-05T01:26:59.410Z,9.443785
2022-11-05T01:27:59.378Z,9.443743
2022-11-05T01:28:59.404Z,9.443762
2022-11-05T01:29:59.422Z,9.443755
2022-11-05T01:30:59.338Z,9.443793
2022-11-05T01:31:59.353Z,9.443757
2022-11-05T01:32:59.342Z,9.443815
2022-11-05T01:33:59.317Z,9.443762
2022-11-05T01:34:59.322Z,9.443759
2022-11-05T01:35:59.318Z,9.443753
2022-11-05T01:36:59.318Z,9.443730
2022-11-05T01:37:59.307Z,9.443720
2022-11-05T01:38:59.306Z,9.443741
2022-11-05T01:39:59.314Z,9.443741
2022-11-05T01:40:59.286Z,9.443772
2022-11-05T01:41:59.305Z,9.443728
2022-11-05T01:42:59.274Z,9.443733
2022-11-05T01:43:59.281Z,9.443727
2022-11-05T01:44:59.309Z,9.443731
2022-11-05T01:46:00.263Z,9.443742
2022-11-05T01:46:59.271Z,9.443685
2022-11-05T01:47:59.257Z,9.443701
2022-11-05T01:49:03.152Z,9.443729
2022-11-05T01:50:00.230Z,9.443676
2022-11-05T01:50:59.242Z,9.443646
2022-11-05T01:51:59.254Z,9.443680
2022-11-05T01:52:59.215Z,9.443721
2022-11-05T01:53:59.220Z,9.443722
2022-11-05T01:54:59.203Z,9.443700
2022-11-05T01:55:59.208Z,9.443695
2022-11-05T01:56:59.220Z,9.443709
2022-11-05T01:57:59.203Z,9.443722
2022-11-05T01:58:59.184Z,9.443620
2022-11-05T01:59:59.192Z,9.443610
2022-11-05T02:00:59.172Z,9.443677
2022-11-05T02:01:59.314Z,9.443677
2022-11-05T02:02:59.223Z,9.443671
2022-11-05T02:03:59.139Z,9.443698
2022-11-05T02:04:59.141Z,9.443722
2022-11-05T02:05:59.165Z,9.443721
2022-11-05T02:06:59.128Z,9.443723
2022-11-05T02:07:59.139Z,9.443688
2022-11-05T02:08:59.133Z,9.443701
2022-11-05T02:09:59.111Z,9.443758
2022-11-05T02:10:59.117Z,9.443718
2022-11-05T02:11:59.109Z,9.443769
2022-11-05T02:12:59.095Z,9.443730
2022-11-05T02:13:59.103Z,9.443793
2022-11-05T02:14:59.095Z,9.443760
2022-11-05T02:15:59.079Z,9.443755
2022-11-05T02:16:59.070Z,9.443780
2022-11-05T02:17:59.087Z,9.443743
2022-11-05T02:18:59.071Z,9.443766
2022-11-05T02:19:59.043Z,9.443799
2022-11-05T02:20:59.082Z,9.443769
2022-11-05T02:21:59.035Z,9.443785
2022-11-05T02:22:59.028Z,9.443764
2022-11-05T02:23:59.043Z,9.443816
2022-11-05T02:24:59.016Z,9.443755
2022-11-05T02:26:00.008Z,9.443731
2022-11-05T02:26:59.011Z,9.443781
2022-11-05T02:27:58.992Z,9.443790
2022-11-05T02:28:59.014Z,9.443805
2022-11-05T02:29:59.000Z,9.443782
2022-11-05T02:30:58.980Z,9.443689
2022-11-05T02:31:58.959Z,9.443757
2022-11-05T02:33:00.036Z,9.443797
2022-11-05T02:33:58.992Z,9.443755
2022-11-05T02:34:58.955Z,9.443683
2022-11-05T02:35:58.951Z,9.443734
2022-11-05T02:36:58.940Z,9.443719
2022-11-05T02:37:58.936Z,9.443750
2022-11-05T02:38:58.943Z,9.443787
2022-11-05T02:39:58.943Z,9.443793
2022-11-05T02:40:58.928Z,9.443698
2022-11-05T02:42:03.627Z,9.443719
2022-11-05T02:43:00.920Z,9.443723
2022-11-05T02:43:58.899Z,9.443742
2022-11-05T02:44:58.923Z,9.443738
2022-11-05T02:45:58.890Z,9.443710
2022-11-05T02:46:58.884Z,9.443731
2022-11-05T02:47:58.886Z,9.443699
2022-11-05T02:48:58.871Z,9.443701
2022-11-05T02:49:58.887Z,9.443726
2022-11-05T02:50:58.866Z,9.443771
2022-11-05T02:51:58.851Z,9.443744
2022-11-05T02:52:58.863Z,9.443740
2022-11-05T02:53:58.843Z,9.443788
2022-11-05T02:54:58.840Z,9.443769
2022-11-05T02:55:58.852Z,9.443754
2022-11-05T02:56:58.907Z,9.443754
2022-11-05T02:57:58.811Z,9.443689
2022-11-05T02:58:58.807Z,9.443684
2022-11-05T02:59:58.825Z,9.443649
2022-11-05T03:00:58.795Z,9.443673
2022-11-05T03:01:58.901Z,9.443665
2022-11-05T03:02:58.846Z,9.443575
2022-11-05T03:03:58.827Z,9.443606
2022-11-05T03:04:58.775Z,9.443616
2022-11-05T03:05:58.807Z,9.443664
2022-11-05T03:06:58.759Z,9.443680
2022-11-05T03:07:58.749Z,9.443669
2022-11-05T03:08:58.761Z,9.443662
2022-11-05T03:09:58.742Z,9.443719
2022-11-05T03:10:58.750Z,9.443707
2022-11-05T03:11:58.773Z,9.443706
2022-11-05T03:12:58.710Z,9.443723
2022-11-05T03:13:58.699Z,9.443666
2022-11-05T03:14:58.711Z,9.443655
2022-11-05T03:15:58.698Z,9.443634
2022-11-05T03:16:58.718Z,9.443695
2022-11-05T03:17:58.840Z,9.443692
2022-11-05T03:18:58.671Z,9.443700
2022-11-05T03:19:58.667Z,9.443710
2022-11-05T03:20:58.667Z,9.443713
2022-11-05T03:21:58.658Z,9.443734
2022-11-05T03:22:58.646Z,9.443673
2022-11-05T03:23:58.652Z,9.443687
2022-11-05T03:24:58.635Z,9.443676
2022-11-05T03:25:58.629Z,9.443707
2022-11-05T03:26:58.670Z,9.443712
2022-11-05T03:27:58.624Z,9.443696
2022-11-05T03:28:58.611Z,9.443705
2022-11-05T03:29:58.614Z,9.443708
2022-11-05T03:30:58.601Z,9.443707
2022-11-05T03:31:58.596Z,9.443712
2022-11-05T03:32:58.589Z,9.443752
2022-11-05T03:33:58.576Z,9.443769
2022-11-05T03:34:58.578Z,9.443775
2022-11-05T03:35:58.586Z,9.443722
2022-11-05T03:36:58.604Z,9.443681
2022-11-05T03:37:58.573Z,9.443752
2022-11-05T03:38:58.585Z,9.443727
2022-11-05T03:39:58.541Z,9.443707
2022-11-05T03:40:58.535Z,9.443723
2022-11-05T03:41:58.551Z,9.443703
2022-11-05T03:42:58.522Z,9.443678
2022-11-05T03:43:58.527Z,9.443706
2022-11-05T03:44:58.538Z,9.443701
2022-11-05T03:45:58.514Z,9.443687
2022-11-05T03:46:58.494Z,9.443621
2022-11-05T03:47:58.518Z,9.443686
2022-11-05T03:48:58.536Z,9.443628
2022-11-05T03:49:58.500Z,9.443550
2022-11-05T03:50:58.474Z,9.443670
2022-11-05T03:51:58.483Z,9.443725
2022-11-05T03:52:58.470Z,9.443769
2022-11-05T03:53:58.487Z,9.443841
2022-11-05T03:54:58.462Z,9.443772
2022-11-05T03:55:59.289Z,9.443778
2022-11-05T03:56:58.443Z,9.443728
2022-11-05T03:57:58.456Z,9.443524
2022-11-05T03:58:59.265Z,9.443604
2022-11-05T03:59:59.471Z,9.443785
2022-11-05T04:00:58.414Z,9.443783
2022-11-05T04:01:58.542Z,9.443776
2022-11-05T04:02:58.617Z,9.443797
2022-11-05T04:03:58.395Z,9.443851
2022-11-05T04:04:58.375Z,9.443682
2022-11-05T04:05:58.463Z,9.443687
2022-11-05T04:06:58.369Z,9.443777
2022-11-05T04:07:58.391Z,9.443763
2022-11-05T04:08:58.350Z,9.443768
2022-11-05T04:09:58.371Z,9.443713
2022-11-05T04:10:58.350Z,9.443691
2022-11-05T04:11:58.338Z,9.443667
2022-11-05T04:12:58.496Z,9.443679
2022-11-05T04:13:58.335Z,9.443765
2022-11-05T04:14:58.324Z,9.443743
2022-11-05T04:15:58.310Z,9.443706
2022-11-05T04:16:58.311Z,9.443678
2022-11-05T04:17:58.323Z,9.443698
2022-11-05T04:18:58.290Z,9.443773
2022-11-05T04:19:58.290Z,9.443867
2022-11-05T04:20:58.283Z,9.443783
2022-11-05T04:21:58.286Z,9.443827
2022-11-05T04:22:58.327Z,9.443752
2022-11-05T04:23:58.270Z,9.443708
2022-11-05T04:24:58.255Z,9.443718
2022-11-05T04:25:58.268Z,9.443733
2022-11-05T04:26:58.246Z,9.443729
2022-11-05T04:27:58.267Z,9.443679
2022-11-05T04:28:59.756Z,9.443732
2022-11-05T04:29:58.222Z,9.443589
2022-11-05T04:30:58.238Z,9.443489
2022-11-05T04:31:58.243Z,9.443695
2022-11-05T04:32:58.302Z,9.443752
2022-11-05T04:33:58.230Z,9.443655
2022-11-05T04:34:58.198Z,9.443675
2022-11-05T04:35:58.191Z,9.443715
2022-11-05T04:36:58.206Z,9.443745
2022-11-05T04:37:58.182Z,9.443722
2022-11-05T04:38:58.198Z,9.443714
2022-11-05T04:39:58.182Z,9.443734
2022-11-05T04:40:58.170Z,9.443668
2022-11-05T04:41:58.162Z,9.443633
2022-11-05T04:42:58.170Z,9.443708
2022-11-05T04:43:58.152Z,9.443717
2022-11-05T04:44:58.161Z,9.443739
2022-11-05T04:45:58.153Z,9.443697
2022-11-05T04:46:58.175Z,9.443676
2022-11-05T04:47:58.134Z,9.443666
2022-11-05T04:48:58.157Z,9.443674
2022-11-05T04:49:58.122Z,9.443712
2022-11-05T04:50:58.162Z,9.443727
2022-11-05T04:51:58.103Z,9.443726
2022-11-05T04:52:58.112Z,9.443708
2022-11-05T04:53:58.091Z,9.443702
2022-11-05T04:54:58.110Z,9.443727
2022-11-05T04:55:58.091Z,9.443746
2022-11-05T04:56:58.065Z,9.443710
2022-11-05T04:57:58.070Z,9.443690
2022-11-05T04:58:58.079Z,9.443687
2022-11-05T04:59:58.065Z,9.443665
2022-11-05T05:00:58.116Z,9.443636
2022-11-05T05:01:58.090Z,9.443690
2022-11-05T05:02:58.058Z,9.443667
2022-11-05T05:03:58.075Z,9.443814
2022-11-05T05:04:58.051Z,9.443765
2022-11-05T05:06:03.385Z,9.443699
2022-11-05T05:07:00.033Z,9.443680
2022-11-05T05:07:58.006Z,9.443710
2022-11-05T05:08:58.033Z,9.443756
2022-11-05T05:09:58.017Z,9.443674
2022-11-05T05:10:58.041Z,9.443663
2022-11-05T05:11:58.014Z,9.443710
2022-11-05T05:12:57.997Z,9.443707
2022-11-05T05:13:57.973Z,9.443714
2022-11-05T05:14:57.975Z,9.443717
2022-11-05T05:15:57.989Z,9.443701
2022-11-05T05:16:57.953Z,9.443733
2022-11-05T05:17:57.951Z,9.443686
2022-11-05T05:18:57.959Z,9.443663
2022-11-05T05:19:57.932Z,9.443675
2022-11-05T05:20:57.949Z,9.443679
2022-11-05T05:21:57.955Z,9.443704
2022-11-05T05:22:57.943Z,9.443719
2022-11-05T05:23:57.957Z,9.443766
2022-11-05T05:24:57.928Z,9.443707
2022-11-05T05:25:57.921Z,9.443704
2022-11-05T05:26:57.900Z,9.443674
2022-11-05T05:27:57.903Z,9.443689
2022-11-05T05:28:57.884Z,9.443666
2022-11-05T05:29:57.872Z,9.443738
2022-11-05T05:30:58.915Z,9.443712
2022-11-05T05:31:58.900Z,9.443645
2022-11-05T05:32:57.883Z,9.443681
2022-11-05T05:33:58.440Z,9.443690
2022-11-05T05:34:57.852Z,9.443714
2022-11-05T05:35:57.884Z,9.443735
2022-11-05T05:36:57.832Z,9.443666
2022-11-05T05:37:57.850Z,9.443683
2022-11-05T05:38:57.832Z,9.443670
2022-11-05T05:39:57.853Z,9.443732
2022-11-05T05:40:57.815Z,9.443734
2022-11-05T05:41:57.869Z,9.443783
2022-11-05T05:42:57.803Z,9.443712
2022-11-05T05:43:57.807Z,9.443759
2022-11-05T05:44:57.795Z,9.443759
2022-11-05T05:45:57.784Z,9.443619
2022-11-05T05:46:57.777Z,9.443578
2022-11-05T05:47:57.805Z,9.443564
2022-11-05T05:48:57.776Z,9.443640
2022-11-05T05:49:57.768Z,9.443741
2022-11-05T05:50:58.485Z,9.443754
2022-11-05T05:51:57.766Z,9.443714
2022-11-05T05:52:57.744Z,9.443786
2022-11-05T05:53:57.759Z,9.443792
2022-11-05T05:54:57.728Z,9.443794
2022-11-05T05:55:57.720Z,9.443701
2022-11-05T05:56:57.725Z,9.443721
2022-11-05T05:57:57.703Z,9.443745
2022-11-05T05:58:57.715Z,9.443728
2022-11-05T05:59:58.484Z,9.443754
2022-11-05T06:00:57.693Z,9.443736
2022-11-05T06:01:57.763Z,9.443661
2022-11-05T06:02:57.737Z,9.443679
2022-11-05T06:03:57.697Z,9.443819
2022-11-05T06:04:57.659Z,9.443764
2022-11-05T06:05:57.693Z,9.443627
2022-11-05T06:06:57.665Z,9.443713
2022-11-05T06:07:57.655Z,9.443600
2022-11-05T06:08:57.696Z,9.443533
2022-11-05T06:09:57.630Z,9.443597
2022-11-05T06:10:57.649Z,9.443720
2022-11-05T06:11:57.637Z,9.443756
2022-11-05T06:12:57.627Z,9.443815
2022-11-05T06:13:57.608Z,9.443833
2022-11-05T06:14:57.620Z,9.443778
2022-11-05T06:15:57.592Z,9.443688
2022-11-05T06:16:57.591Z,9.443699
2022-11-05T06:17:57.604Z,9.443808
2022-11-05T06:18:57.561Z,9.443742
2022-11-05T06:19:57.558Z,9.443707
2022-11-05T06:20:57.572Z,9.443792
2022-11-05T06:21:57.567Z,9.443801
2022-11-05T06:22:57.579Z,9.443772
2022-11-05T06:23:57.547Z,9.443824
2022-11-05T06:24:57.536Z,9.443823
2022-11-05T06:25:57.519Z,9.443769
2022-11-05T06:26:58.722Z,9.443791
2022-11-05T06:27:57.546Z,9.443668
2022-11-05T06:28:57.521Z,9.443714
2022-11-05T06:29:57.588Z,9.443762
2022-11-05T06:30:57.495Z,9.443746
2022-11-05T06:31:57.495Z,9.443748
2022-11-05T06:32:57.524Z,9.443778
2022-11-05T06:33:57.476Z,9.443807
2022-11-05T06:34:57.467Z,9.443810
2022-11-05T06:35:57.475Z,9.443829
2022-11-05T06:36:57.476Z,9.443817
2022-11-05T06:37:57.460Z,9.443828
2022-11-05T06:38:57.447Z,9.443830
2022-11-05T06:39:57.459Z,9.443810
2022-11-05T06:40:57.446Z,9.443815
2022-11-05T06:42:17.137Z,9.443812
2022-11-05T06:42:59.940Z,9.443838
2022-11-05T06:43:57.425Z,9.443935
2022-11-05T06:44:57.413Z,9.443836
2022-11-05T06:45:57.401Z,9.443788
2022-11-05T06:46:57.393Z,9.443737
2022-11-05T06:47:57.417Z,9.443854
2022-11-05T06:48:57.368Z,9.443828
2022-11-05T06:49:57.389Z,9.443842
2022-11-05T06:50:57.372Z,9.443852
2022-11-05T06:51:57.381Z,9.443863
2022-11-05T06:52:57.357Z,9.443823
2022-11-05T06:53:57.345Z,9.443807
2022-11-05T06:54:57.361Z,9.443830
2022-11-05T06:55:57.342Z,9.443790
2022-11-05T06:56:57.336Z,9.443767
2022-11-05T06:57:57.348Z,9.443645
2022-11-05T06:58:57.329Z,9.443773
2022-11-05T07:00:02.300Z,9.443715
2022-11-05T07:00:59.342Z,9.443801
2022-11-05T07:01:57.406Z,9.443880
2022-11-05T07:02:57.316Z,9.443654
2022-11-05T07:03:57.288Z,9.443663
2022-11-05T07:04:57.267Z,9.443688
2022-11-05T07:05:57.285Z,9.443678
2022-11-05T07:06:57.265Z,9.443654
2022-11-05T07:07:57.277Z,9.443655
2022-11-05T07:08:57.296Z,9.443645
2022-11-05T07:09:57.260Z,9.443549
2022-11-05T07:10:57.239Z,9.443669
2022-11-05T07:11:57.226Z,9.443717
2022-11-05T07:12:57.221Z,9.443654
2022-11-05T07:13:57.249Z,9.443634
2022-11-05T07:14:57.284Z,9.443566
2022-11-05T07:15:57.218Z,9.443583
2022-11-05T07:16:57.201Z,9.443629
2022-11-05T07:17:57.193Z,9.443599
2022-11-05T07:18:57.218Z,9.443707
2022-11-05T07:19:57.192Z,9.443713
2022-11-05T07:20:57.178Z,9.443633
2022-11-05T07:21:57.175Z,9.443606
2022-11-05T07:22:57.165Z,9.443632
2022-11-05T07:23:57.182Z,9.443677
2022-11-05T07:24:57.173Z,9.443619
2022-11-05T07:25:57.145Z,9.443582
2022-11-05T07:26:57.138Z,9.443542
2022-11-05T07:27:57.128Z,9.443485
2022-11-05T07:28:57.185Z,9.443470
2022-11-05T07:29:57.121Z,9.443608
2022-11-05T07:30:57.115Z,9.443604
2022-11-05T07:31:57.114Z,9.443703
2022-11-05T07:32:57.102Z,9.443549
2022-11-05T07:33:57.121Z,9.443559
2022-11-05T07:34:57.094Z,9.443648
2022-11-05T07:35:57.076Z,9.443666
2022-11-05T07:36:57.120Z,9.443648
2022-11-05T07:37:57.071Z,9.443599
2022-11-05T07:39:00.306Z,9.443629
2022-11-05T07:39:58.092Z,9.443691
2022-11-05T07:40:57.049Z,9.443758
2022-11-05T07:41:57.046Z,9.443641
2022-11-05T07:42:57.069Z,9.443605
2022-11-05T07:43:57.034Z,9.443655
2022-11-05T07:44:57.065Z,9.443637
2022-11-05T07:45:57.043Z,9.443493
2022-11-05T07:46:57.020Z,9.443495
2022-11-05T07:47:57.018Z,9.443581
2022-11-05T07:48:57.035Z,9.443583
2022-11-05T07:49:57.003Z,9.443770
2022-11-05T07:50:56.998Z,9.443771
2022-11-05T07:51:56.991Z,9.443769
2022-11-05T07:52:57.003Z,9.443693
2022-11-05T07:53:56.967Z,9.443701
2022-11-05T07:54:56.983Z,9.443659
2022-11-05T07:55:57.096Z,9.443635
2022-11-05T07:56:56.945Z,9.443654
2022-11-05T07:57:56.946Z,9.443637
2022-11-05T07:58:56.943Z,9.443646
2022-11-05T07:59:56.937Z,9.443624
2022-11-05T08:00:57.023Z,9.443605
2022-11-05T08:01:57.100Z,9.443601
2022-11-05T08:03:00.820Z,9.443688
2022-11-05T08:03:57.913Z,9.443779
2022-11-05T08:04:56.915Z,9.443694
2022-11-05T08:05:56.894Z,9.443698
2022-11-05T08:06:56.887Z,9.443668
2022-11-05T08:07:56.888Z,9.443667
2022-11-05T08:08:57.822Z,9.443660
2022-11-05T08:09:56.857Z,9.443643
2022-11-05T08:10:56.840Z,9.443728
2022-11-05T08:12:02.451Z,9.443663
2022-11-05T08:12:58.846Z,9.443745
2022-11-05T08:13:56.863Z,9.443720
2022-11-05T08:14:56.828Z,9.443522
2022-11-05T08:15:56.812Z,9.443749
2022-11-05T08:16:57.458Z,9.443711
2022-11-05T08:17:56.810Z,9.443707
2022-11-05T08:18:56.828Z,9.443704
2022-11-05T08:19:56.812Z,9.443735
2022-11-05T08:20:56.790Z,9.443717
2022-11-05T08:21:56.778Z,9.443793
2022-11-05T08:22:56.862Z,9.443619
2022-11-05T08:23:56.777Z,9.443784
2022-11-05T08:25:00.346Z,9.443667
2022-11-05T08:25:57.754Z,9.443900
2022-11-05T08:26:56.742Z,9.443789
2022-11-05T08:27:56.744Z,9.443838
2022-11-05T08:28:56.750Z,9.443798
2022-11-05T08:29:56.728Z,9.443659
2022-11-05T08:30:56.740Z,9.443564
2022-11-05T08:31:56.731Z,9.443535
2022-11-05T08:32:56.728Z,9.443491
2022-11-05T08:34:02.194Z,9.443649
2022-11-05T08:34:58.815Z,9.443691
2022-11-05T08:35:56.691Z,9.443858
2022-11-05T08:36:56.694Z,9.443754
2022-11-05T08:37:56.689Z,9.443782
2022-11-05T08:38:56.670Z,9.443806
2022-11-05T08:39:56.685Z,9.443805
2022-11-05T08:40:56.680Z,9.443791
2022-11-05T08:41:56.664Z,9.443776
2022-11-05T08:42:56.636Z,9.443761
2022-11-05T08:43:56.633Z,9.443809
2022-11-05T08:44:56.657Z,9.443839
2022-11-05T08:45:56.653Z,9.443923
2022-11-05T08:46:56.620Z,9.443861
2022-11-05T08:47:56.627Z,9.443709
2022-11-05T08:48:56.596Z,9.443781
2022-11-05T08:49:56.642Z,9.443656
2022-11-05T08:50:56.612Z,9.443821
2022-11-05T08:51:56.587Z,9.443945
2022-11-05T08:52:56.590Z,9.443892
2022-11-05T08:53:56.679Z,9.443795
2022-11-05T08:54:56.585Z,9.443808
2022-11-05T08:55:56.560Z,9.443798
2022-11-05T08:56:56.590Z,9.443798
2022-11-05T08:57:56.563Z,9.443774
2022-11-05T08:58:56.558Z,9.443804
2022-11-05T08:59:56.529Z,9.443777
2022-11-05T09:01:01.784Z,9.443827
2022-11-05T09:01:58.666Z,9.443834
2022-11-05T09:02:56.528Z,9.443832
2022-11-05T09:03:56.552Z,9.443813
2022-11-05T09:04:56.550Z,9.443763
2022-11-05T09:05:56.526Z,9.443788
2022-11-05T09:06:56.524Z,9.443722
2022-11-05T09:08:00.863Z,9.443809
2022-11-05T09:08:58.496Z,9.443729
2022-11-05T09:09:56.507Z,9.443700
2022-11-05T09:10:56.455Z,9.443735
2022-11-05T09:12:11.923Z,9.443746
2022-11-05T09:12:58.469Z,9.443779
2022-11-05T09:13:56.465Z,9.443805
2022-11-05T09:14:56.449Z,9.443867
2022-11-05T09:15:56.471Z,9.443786
2022-11-05T09:16:56.427Z,9.443685
2022-11-05T09:17:56.422Z,9.443654
2022-11-05T09:18:56.436Z,9.443685
2022-11-05T09:19:56.406Z,9.443728
2022-11-05T09:20:56.446Z,9.443712
2022-11-05T09:21:56.386Z,9.443691
2022-11-05T09:22:56.404Z,9.443748
2022-11-05T09:23:56.394Z,9.443735
2022-11-05T09:24:56.369Z,9.443753
2022-11-05T09:25:56.482Z,9.443747
2022-11-05T09:26:56.358Z,9.443792
2022-11-05T09:27:56.369Z,9.443756
2022-11-05T09:28:56.355Z,9.443707
2022-11-05T09:29:56.351Z,9.443694
2022-11-05T09:30:56.350Z,9.443717
2022-11-05T09:31:56.327Z,9.443747
2022-11-05T09:32:56.338Z,9.443753
2022-11-05T09:33:56.343Z,9.443752
2022-11-05T09:34:56.335Z,9.443730
2022-11-05T09:35:56.323Z,9.443768
2022-11-05T09:36:56.305Z,9.443645
2022-11-05T09:38:00.737Z,9.443731
2022-11-05T09:38:57.304Z,9.443708
2022-11-05T09:39:56.282Z,9.443740
2022-11-05T09:40:56.275Z,9.443727
2022-11-05T09:41:56.316Z,9.443713
2022-11-05T09:42:56.257Z,9.443731
2022-11-05T09:43:56.269Z,9.443721
2022-11-05T09:44:56.233Z,9.443754
2022-11-05T09:45:57.299Z,9.443797
2022-11-05T09:46:56.330Z,9.443817
2022-11-05T09:47:57.031Z,9.443767
2022-11-05T09:48:56.277Z,9.443787
2022-11-05T09:49:56.302Z,9.443755
2022-11-05T09:50:56.398Z,9.443723
2022-11-05T09:51:56.341Z,9.443744
2022-11-05T09:52:56.407Z,9.443713
2022-11-05T09:53:56.287Z,9.443746
2022-11-05T09:54:56.274Z,9.443721
2022-11-05T09:55:56.290Z,9.443722
2022-11-05T09:56:56.228Z,9.443768
2022-11-05T09:57:56.261Z,9.443727
2022-11-05T09:58:56.205Z,9.443726
2022-11-05T09:59:56.305Z,9.443716
2022-11-05T10:00:56.390Z,9.443711
2022-11-05T10:01:56.408Z,9.443712
2022-11-05T10:02:56.294Z,9.443710
2022-11-05T10:03:56.211Z,9.443750
2022-11-05T10:04:56.956Z,9.443719
2022-11-05T10:05:56.222Z,9.443723
2022-11-05T10:06:56.140Z,9.443776
2022-11-05T10:07:56.160Z,9.443757
2022-11-05T10:08:56.245Z,9.443711
2022-11-05T10:09:56.145Z,9.443706
2022-11-05T10:10:56.094Z,9.443666
2022-11-05T10:11:57.041Z,9.443699
2022-11-05T10:12:56.103Z,9.443740
2022-11-05T10:13:56.094Z,9.443731
2022-11-05T10:14:56.135Z,9.443710
2022-11-05T10:15:56.240Z,9.443736
2022-11-05T10:16:57.045Z,9.443782
2022-11-05T10:17:56.089Z,9.443732
2022-11-05T10:18:56.597Z,9.443686
2022-11-05T10:19:56.188Z,9.443729
2022-11-05T10:20:56.084Z,9.443702
2022-11-05T10:22:12.272Z,9.443733
2022-11-05T10:22:58.029Z,9.443679
2022-11-05T10:23:56.058Z,9.443640
2022-11-05T10:24:56.067Z,9.443684
2022-11-05T10:25:56.010Z,9.443776
2022-11-05T10:26:56.010Z,9.443828
2022-11-05T10:27:56.035Z,9.443822
2022-11-05T10:28:56.039Z,9.443980
2022-11-05T10:29:56.099Z,9.443795
2022-11-05T10:30:56.026Z,9.443761
2022-11-05T10:31:55.990Z,9.443748
2022-11-05T10:32:55.986Z,9.443768
2022-11-05T10:33:56.026Z,9.443744
2022-11-05T10:34:56.000Z,9.443713
2022-11-05T10:35:56.011Z,9.443791
2022-11-05T10:36:55.995Z,9.443707
2022-11-05T10:37:55.963Z,9.443726
2022-11-05T10:38:56.474Z,9.443728
2022-11-05T10:39:55.992Z,9.443728
2022-11-05T10:40:55.948Z,9.443830
2022-11-05T10:41:55.950Z,9.443785
2022-11-05T10:42:55.959Z,9.443802
2022-11-05T10:43:55.930Z,9.443729
2022-11-05T10:44:55.922Z,9.443691
2022-11-05T10:45:56.003Z,9.443816
2022-11-05T10:46:55.956Z,9.443792
2022-11-05T10:47:55.907Z,9.443826
2022-11-05T10:48:55.909Z,9.443705
2022-11-05T10:49:55.918Z,9.443535
2022-11-05T10:50:55.910Z,9.443482
2022-11-05T10:51:55.900Z,9.443470
2022-11-05T10:52:56.917Z,9.443539
2022-11-05T10:54:00.506Z,9.443609
2022-11-05T10:54:57.886Z,9.443680
2022-11-05T10:55:55.892Z,9.443555
2022-11-05T10:56:55.865Z,9.443403
2022-11-05T10:57:55.870Z,9.443386
2022-11-05T10:58:55.894Z,9.443610
2022-11-05T10:59:55.858Z,9.443666
2022-11-05T11:00:55.924Z,9.443680
2022-11-05T11:01:56.029Z,9.443727
2022-11-05T11:02:55.847Z,9.443652
2022-11-05T11:03:55.813Z,9.443641
2022-11-05T11:04:55.825Z,9.443744
2022-11-05T11:05:55.835Z,9.443755
2022-11-05T11:06:55.816Z,9.443671
2022-11-05T11:07:55.820Z,9.443616
2022-11-05T11:08:55.875Z,9.443662
2022-11-05T11:09:55.817Z,9.443651
2022-11-05T11:10:55.826Z,9.443588
2022-11-05T11:15:53.176Z,9.443614
2022-11-05T11:16:53.232Z,9.443563
2022-11-05T11:17:53.228Z,9.443555
2022-11-05T11:18:53.168Z,9.443559
2022-11-05T11:19:53.157Z,9.443591
2022-11-05T11:20:53.148Z,9.443581
2022-11-05T11:21:53.168Z,9.443399
2022-11-05T11:22:53.153Z,9.443498
2022-11-05T11:23:53.133Z,9.443599
2022-11-05T11:24:53.128Z,9.443648
2022-11-05T11:25:53.119Z,9.443659
2022-11-05T11:26:53.135Z,9.443688
2022-11-05T11:27:53.107Z,9.443585
2022-11-05T11:28:53.101Z,9.443620
2022-11-05T11:29:53.094Z,9.443630
2022-11-05T11:30:53.089Z,9.443700
2022-11-05T11:31:53.093Z,9.443670
2022-11-05T11:32:53.094Z,9.443670
2022-11-05T11:33:53.109Z,9.443609
2022-11-05T11:34:53.090Z,9.443661
2022-11-05T11:35:53.073Z,9.443675
2022-11-05T11:36:53.053Z,9.443643
2022-11-05T11:37:53.077Z,9.443693
2022-11-05T11:38:53.072Z,9.443656
2022-11-05T11:39:54.069Z,9.443669
2022-11-05T11:40:53.054Z,9.443653
2022-11-05T11:41:53.036Z,9.443658
2022-11-05T11:42:53.080Z,9.443681
2022-11-05T11:43:53.013Z,9.443701
2022-11-05T11:44:53.013Z,9.443696
2022-11-05T11:45:53.022Z,9.443676
2022-11-05T11:46:53.001Z,9.443683
2022-11-05T11:47:53.135Z,9.443698
2022-11-05T11:48:52.990Z,9.443770